Time;durP1;ratioP1;P1;durP2;ratioP2;P2;SDS_P1;SDS_P2;PMS_P1;PMS_P2;Temp;Humidity;BMP_temperature;BMP_pressure;BME280_temperature;BME280_humidity;BME280_pressure;Samples;Min_cycle;Max_cycle;Signal;HPM_P1;HPM_P2
2024/02/26 00:01:36;;;;;;;25.20;4.60;;;10.40;90.70;;;;;;5031135;28;20118;-50
2024/02/26 00:04:02;;;;;;;15.98;4.28;;;10.40;90.90;;;;;;5048886;28;20056;-50
2024/02/26 00:06:29;;;;;;;15.55;4.13;;;10.40;90.70;;;;;;5047394;28;20026;-51
2024/02/26 00:08:54;;;;;;;12.65;4.22;;;10.30;90.70;;;;;;5047678;28;20057;-50
2024/02/26 00:11:20;;;;;;;11.75;4.13;;;10.30;90.60;;;;;;5048712;28;20042;-50
2024/02/26 00:13:45;;;;;;;15.73;4.78;;;10.30;90.70;;;;;;5030984;28;20025;-50
2024/02/26 00:16:11;;;;;;;17.27;4.30;;;10.30;90.70;;;;;;5030945;28;20024;-50
2024/02/26 00:18:36;;;;;;;19.67;4.20;;;10.30;90.70;;;;;;5047332;28;20049;-50
2024/02/26 00:21:02;;;;;;;15.32;3.90;;;10.30;90.70;;;;;;5048478;28;20052;-51
2024/02/26 00:23:28;;;;;;;16.63;4.07;;;10.30;90.70;;;;;;5048629;28;20079;-51
2024/02/26 00:25:53;;;;;;;16.33;3.88;;;10.30;90.60;;;;;;5049224;28;20036;-51
2024/02/26 00:28:20;;;;;;;15.60;3.83;;;10.20;90.70;;;;;;5047616;28;20025;-51
2024/02/26 00:30:46;;;;;;;12.18;3.92;;;10.30;90.70;;;;;;5046809;28;20072;-50
2024/02/26 00:33:12;;;;;;;19.77;4.35;;;10.20;90.70;;;;;;5047170;28;20067;-51
2024/02/26 00:35:37;;;;;;;14.50;3.60;;;10.30;90.80;;;;;;5046911;28;20053;-50
2024/02/26 00:38:04;;;;;;;12.27;3.80;;;10.30;90.80;;;;;;5048054;28;20038;-50
2024/02/26 00:40:29;;;;;;;9.73;3.90;;;10.20;90.70;;;;;;5046896;28;20033;-51
2024/02/26 00:42:55;;;;;;;14.30;3.40;;;10.20;90.70;;;;;;5030397;28;20029;-50
2024/02/26 00:45:21;;;;;;;11.18;3.15;;;10.20;90.70;;;;;;5046770;28;20065;-50
2024/02/26 00:47:48;;;;;;;10.15;3.25;;;10.20;90.70;;;;;;5046938;28;20037;-50
2024/02/26 00:50:13;;;;;;;10.95;3.30;;;10.20;90.80;;;;;;5048377;28;20169;-51
2024/02/26 00:52:39;;;;;;;11.25;3.78;;;10.20;90.80;;;;;;5046742;28;20465;-50
2024/02/26 00:55:25;;;;;;;9.48;3.10;;;10.20;90.80;;;;;;5047929;28;20034;-51
2024/02/26 00:57:50;;;;;;;;;;;10.20;90.80;;;;;;5047238;28;20045;-50
2024/02/26 01:00:16;;;;;;;;;;;10.20;90.80;;;;;;5048158;28;19932;-50
2024/02/26 01:02:41;;;;;;;10.10;3.67;;;10.20;90.80;;;;;;5046572;28;19909;-50
2024/02/26 01:05:09;;;;;;;14.75;3.20;;;10.20;90.80;;;;;;5046564;28;20029;-51
2024/02/26 01:07:35;;;;;;;10.13;3.38;;;10.20;90.70;;;;;;5046376;28;20085;-50
2024/02/26 01:10:05;;;;;;;8.50;3.40;;;10.20;90.70;;;;;;5029785;28;20108;-51
2024/02/26 01:12:31;;;;;;;9.65;3.08;;;10.20;90.80;;;;;;5047371;28;20105;-50
2024/02/26 01:14:57;;;;;;;10.20;2.70;;;10.10;90.70;;;;;;5046198;28;20045;-51
2024/02/26 01:17:22;;;;;;;12.65;3.40;;;10.10;90.70;;;;;;5046316;28;20049;-50
2024/02/26 01:19:48;;;;;;;9.95;2.95;;;10.10;90.70;;;;;;5046260;28;20031;-50
2024/02/26 01:22:13;;;;;;;9.02;3.10;;;10.10;90.80;;;;;;5046045;28;20554;-50
2024/02/26 01:24:39;;;;;;;8.23;2.83;;;10.10;90.70;;;;;;5047152;28;20036;-51
2024/02/26 01:27:05;;;;;;;10.85;2.85;;;10.10;90.80;;;;;;5047443;28;20029;-50
2024/02/26 01:29:30;;;;;;;8.25;3.80;;;10.10;90.80;;;;;;5047224;28;20036;-51
2024/02/26 01:31:56;;;;;;;9.00;3.13;;;10.10;90.80;;;;;;5047489;28;20040;-51
2024/02/26 01:34:21;;;;;;;10.13;3.38;;;10.10;90.80;;;;;;5029745;28;20037;-51
2024/02/26 01:36:47;;;;;;;8.55;2.97;;;10.00;90.80;;;;;;5045831;28;20044;-50
2024/02/26 01:39:13;;;;;;;11.40;3.17;;;10.10;90.80;;;;;;5045831;28;20080;-50
2024/02/26 01:41:39;;;;;;;7.45;3.15;;;10.10;90.80;;;;;;5045920;28;20026;-51
2024/02/26 01:44:05;;;;;;;7.03;2.85;;;10.00;90.80;;;;;;5028938;28;20113;-50
2024/02/26 01:46:32;;;;;;;9.48;2.60;;;10.00;90.80;;;;;;5045860;28;20033;-51
2024/02/26 01:48:57;;;;;;;8.25;2.47;;;10.00;90.80;;;;;;5029456;28;20033;-51
2024/02/26 01:51:23;;;;;;;10.90;3.25;;;10.00;90.80;;;;;;5012995;28;20039;-50
2024/02/26 01:53:48;;;;;;;7.53;2.58;;;10.00;90.80;;;;;;5029580;28;20037;-51
2024/02/26 01:56:14;;;;;;;14.93;3.33;;;10.00;90.80;;;;;;5029209;28;20060;-50
2024/02/26 01:58:40;;;;;;;8.25;3.00;;;10.00;90.80;;;;;;5029015;28;20041;-50
2024/02/26 02:01:05;;;;;;;11.70;3.00;;;10.00;90.80;;;;;;5029031;28;20025;-51
2024/02/26 02:03:31;;;;;;;5.43;2.67;;;10.00;90.80;;;;;;5046838;28;20115;-51
2024/02/26 02:05:56;;;;;;;5.82;2.90;;;10.00;90.80;;;;;;5028817;28;20026;-51
2024/02/26 02:08:22;;;;;;;8.95;2.78;;;10.00;90.80;;;;;;5029019;28;20057;-50
2024/02/26 02:10:49;;;;;;;9.65;2.80;;;10.00;90.90;;;;;;5028784;28;20029;-50
2024/02/26 02:13:14;;;;;;;8.60;3.03;;;10.00;90.90;;;;;;5028905;28;20036;-50
2024/02/26 02:15:40;;;;;;;5.85;2.50;;;10.00;90.90;;;;;;5028837;28;20018;-50
2024/02/26 02:18:06;;;;;;;8.85;2.60;;;10.00;90.90;;;;;;5028803;28;20033;-50
2024/02/26 02:20:33;;;;;;;8.10;2.80;;;10.00;90.90;;;;;;5012248;28;20503;-50
2024/02/26 02:22:58;;;;;;;10.23;2.47;;;10.00;90.90;;;;;;5046437;28;20033;-50
2024/02/26 02:25:24;;;;;;;8.80;2.97;;;10.00;90.90;;;;;;5045233;28;20021;-50
2024/02/26 02:27:49;;;;;;;6.68;2.78;;;10.00;90.90;;;;;;5046344;28;20026;-50
2024/02/26 02:30:16;;;;;;;6.65;2.58;;;9.90;90.90;;;;;;5028750;28;20143;-50
2024/02/26 02:32:41;;;;;;;10.40;2.60;;;9.90;90.90;;;;;;5028774;28;20087;-50
2024/02/26 02:35:07;;;;;;;5.88;2.65;;;9.90;91.00;;;;;;5028404;28;20033;-51
2024/02/26 02:37:33;;;;;;;6.38;2.50;;;9.90;90.90;;;;;;5044779;28;20048;-50
2024/02/26 02:39:58;;;;;;;6.60;2.50;;;9.90;91.00;;;;;;5046266;28;20112;-50
2024/02/26 02:42:24;;;;;;;8.45;2.67;;;9.90;91.00;;;;;;5044924;28;20036;-50
2024/02/26 02:44:49;;;;;;;7.80;2.75;;;9.90;91.00;;;;;;5045112;28;20029;-51
2024/02/26 02:47:15;;;;;;;7.72;2.30;;;9.90;91.00;;;;;;5028290;28;20467;-50
2024/02/26 02:49:41;;;;;;;4.40;2.17;;;9.90;91.00;;;;;;5044762;28;20056;-51
2024/02/26 02:52:06;;;;;;;6.38;2.80;;;9.90;91.00;;;;;;5046106;28;20044;-50
2024/02/26 02:54:32;;;;;;;6.82;2.53;;;9.90;91.00;;;;;;5046965;28;20025;-50
2024/02/26 02:56:58;;;;;;;8.20;2.72;;;9.90;91.10;;;;;;5048946;28;20034;-50
2024/02/26 02:59:23;;;;;;;8.15;3.00;;;9.90;91.10;;;;;;5050187;28;20025;-50
2024/02/26 03:01:49;;;;;;;6.72;2.70;;;9.90;91.10;;;;;;5050002;28;20079;-50
2024/02/26 03:04:14;;;;;;;6.25;2.25;;;9.90;91.10;;;;;;5048706;28;20022;-50
2024/02/26 03:06:40;;;;;;;6.35;2.40;;;9.90;91.00;;;;;;5048728;28;20060;-50
2024/02/26 03:09:06;;;;;;;8.65;2.80;;;9.90;91.10;;;;;;5049726;28;20049;-50
2024/02/26 03:11:31;;;;;;;5.20;2.10;;;9.90;91.10;;;;;;5048633;28;20029;-50
2024/02/26 03:13:57;;;;;;;3.90;2.25;;;9.90;91.10;;;;;;5049921;28;20045;-50
2024/02/26 03:16:22;;;;;;;3.88;1.90;;;9.80;91.10;;;;;;5048438;28;20557;-50
2024/02/26 03:18:48;;;;;;;5.68;2.28;;;9.80;91.10;;;;;;5049593;28;20057;-50
2024/02/26 03:21:14;;;;;;;7.13;2.22;;;9.90;91.20;;;;;;5048475;28;20495;-51
2024/02/26 03:23:39;;;;;;;4.93;2.15;;;9.90;91.20;;;;;;5049838;28;20036;-50
2024/02/26 03:26:05;;;;;;;12.63;3.15;;;9.90;91.20;;;;;;5031997;28;20026;-50
2024/02/26 03:28:32;;;;;;;10.75;2.55;;;9.80;91.20;;;;;;5049868;28;20468;-51
2024/02/26 03:30:59;;;;;;;6.80;2.50;;;9.80;91.20;;;;;;5049513;28;20115;-50
2024/02/26 03:33:24;;;;;;;6.47;2.45;;;9.80;91.20;;;;;;5047961;28;20037;-51
2024/02/26 03:35:50;;;;;;;7.82;2.63;;;9.80;91.20;;;;;;5015301;28;20017;-50
2024/02/26 03:38:15;;;;;;;6.53;2.63;;;9.80;91.20;;;;;;5049125;28;20038;-50
2024/02/26 03:40:41;;;;;;;4.85;2.10;;;9.80;91.20;;;;;;5049615;28;20025;-50
2024/02/26 03:43:07;;;;;;;8.88;2.60;;;9.80;91.20;;;;;;5049330;28;20037;-50
2024/02/26 03:45:33;;;;;;;5.40;2.30;;;9.80;91.30;;;;;;5047971;28;20101;-50
2024/02/26 03:47:58;;;;;;;6.32;2.72;;;9.80;91.30;;;;;;5049651;28;20033;-50
2024/02/26 03:50:24;;;;;;;7.47;2.80;;;9.80;91.30;;;;;;5031403;28;20042;-51
2024/02/26 03:52:49;;;;;;;7.82;2.28;;;9.80;91.20;;;;;;5047979;28;20037;-51
2024/02/26 03:55:15;;;;;;;6.63;2.08;;;9.80;91.30;;;;;;5047935;28;20032;-50
2024/02/26 03:57:41;;;;;;;4.93;2.30;;;9.80;91.30;;;;;;5047794;28;20081;-50
2024/02/26 04:00:07;;;;;;;5.00;2.10;;;9.80;91.40;;;;;;5047797;28;20048;-50
2024/02/26 04:02:32;;;;;;;4.35;1.95;;;9.80;91.40;;;;;;5031297;28;20033;-50
2024/02/26 04:04:59;;;;;;;3.95;2.03;;;9.80;91.40;;;;;;5047417;28;20473;-50
2024/02/26 04:07:24;;;;;;;3.85;1.75;;;9.70;91.30;;;;;;5047198;28;20392;-51
2024/02/26 04:09:50;;;;;;;6.95;2.58;;;9.70;91.30;;;;;;5048906;28;20037;-50
2024/02/26 04:12:15;;;;;;;4.03;1.92;;;9.70;91.40;;;;;;5048718;28;20041;-50
2024/02/26 04:14:41;;;;;;;4.85;1.90;;;9.70;91.40;;;;;;5047384;28;20112;-50
2024/02/26 04:17:07;;;;;;;5.32;2.03;;;9.70;91.50;;;;;;5047429;28;20029;-51
2024/02/26 04:19:32;;;;;;;4.05;1.83;;;9.60;91.50;;;;;;5047281;28;20029;-51
2024/02/26 04:21:59;;;;;;;4.97;1.77;;;9.70;91.50;;;;;;5014561;28;20030;-51
2024/02/26 04:24:24;;;;;;;3.80;2.00;;;9.70;91.50;;;;;;5031071;28;20029;-50
2024/02/26 04:26:50;;;;;;;3.22;2.00;;;9.70;91.50;;;;;;5047211;28;20045;-50
2024/02/26 04:29:16;;;;;;;5.13;2.03;;;9.70;91.50;;;;;;5048403;28;20438;-50
2024/02/26 04:31:42;;;;;;;6.78;2.35;;;9.70;91.50;;;;;;5047131;28;20056;-50
2024/02/26 04:34:08;;;;;;;5.32;2.10;;;9.70;91.60;;;;;;5047154;28;20021;-50
2024/02/26 04:36:34;;;;;;;4.97;1.75;;;9.70;91.60;;;;;;5013789;28;20480;-51
2024/02/26 04:38:59;;;;;;;4.25;1.88;;;9.70;91.60;;;;;;5047029;28;20036;-51
2024/02/26 04:41:25;;;;;;;2.80;1.70;;;9.70;91.60;;;;;;5048174;28;20025;-50
2024/02/26 04:43:50;;;;;;;3.60;2.10;;;9.70;91.70;;;;;;5048080;28;20476;-50
2024/02/26 04:46:16;;;;;;;3.42;1.52;;;9.70;91.70;;;;;;5048069;28;20018;-50
2024/02/26 04:48:42;;;;;;;3.17;2.10;;;9.70;91.60;;;;;;5046596;28;20041;-51
2024/02/26 04:51:07;;;;;;;3.03;1.60;;;9.70;91.60;;;;;;5048057;28;20029;-51
2024/02/26 04:53:33;;;;;;;5.30;1.95;;;9.70;91.70;;;;;;5046552;28;20041;-50
2024/02/26 04:55:58;;;;;;;4.60;1.80;;;9.70;91.70;;;;;;5046933;28;20068;-50
2024/02/26 04:58:24;;;;;;;5.43;1.90;;;9.70;91.70;;;;;;5047971;28;20060;-50
2024/02/26 05:00:49;;;;;;;5.30;1.92;;;9.70;91.70;;;;;;5046738;28;20025;-50
2024/02/26 05:03:15;;;;;;;6.22;1.95;;;9.70;91.70;;;;;;5046506;28;20029;-51
2024/02/26 05:05:42;;;;;;;2.90;1.77;;;9.70;91.70;;;;;;5046593;28;20052;-50
2024/02/26 05:08:08;;;;;;;4.75;1.90;;;9.70;91.70;;;;;;5047553;28;20033;-50
2024/02/26 05:10:33;;;;;;;4.15;1.80;;;9.70;91.70;;;;;;5029950;28;20104;-50
2024/02/26 05:12:59;;;;;;;6.82;1.80;;;9.70;91.70;;;;;;5029926;28;20030;-50
2024/02/26 05:15:24;;;;;;;3.35;1.60;;;9.70;91.80;;;;;;5046158;28;20029;-50
2024/02/26 05:17:50;;;;;;;8.32;2.05;;;9.70;91.80;;;;;;5046584;28;20034;-51
2024/02/26 05:20:16;;;;;;;6.00;2.10;;;9.70;91.80;;;;;;5046179;28;20040;-50
2024/02/26 05:22:42;;;;;;;4.30;1.80;;;9.70;91.90;;;;;;5047293;28;20032;-50
2024/02/26 05:25:08;;;;;;;6.70;1.95;;;9.60;91.80;;;;;;5029486;28;20025;-50
2024/02/26 05:27:33;;;;;;;4.88;1.63;;;9.70;91.80;;;;;;5047403;28;20473;-50
2024/02/26 05:29:59;;;;;;;5.28;1.73;;;9.70;91.80;;;;;;5046068;28;20030;-51
2024/02/26 05:32:24;;;;;;;4.22;1.77;;;9.70;91.80;;;;;;5047132;28;20029;-51
2024/02/26 05:34:50;;;;;;;3.75;1.58;;;9.70;91.80;;;;;;5047604;28;20029;-51
2024/02/26 05:37:15;;;;;;;6.78;1.85;;;9.70;91.80;;;;;;5046907;28;20045;-51
2024/02/26 05:39:49;;;;;;;;;;;9.70;91.90;;;;;;5125545;27;20365;-50
2024/02/26 05:42:15;;;;;;;;;;;9.70;91.80;;;;;;5125066;28;19930;-50
2024/02/26 05:44:40;;;;;;;7.47;2.33;;;9.70;91.80;;;;;;5124596;28;19908;-50
2024/02/26 05:47:06;;;;;;;4.10;2.00;;;9.70;91.80;;;;;;5106097;28;20023;-50
2024/02/26 05:49:33;;;;;;;10.80;1.70;;;9.70;91.80;;;;;;5105558;28;20118;-50
2024/02/26 05:51:59;;;;;;;6.15;1.95;;;9.70;91.90;;;;;;5124237;28;20028;-50
2024/02/26 05:54:24;;;;;;;13.90;2.05;;;9.60;91.90;;;;;;5124193;28;20034;-50
2024/02/26 05:56:50;;;;;;;6.93;2.17;;;9.70;92.00;;;;;;5105752;28;20055;-50
2024/02/26 05:59:15;;;;;;;8.95;1.88;;;9.70;92.30;;;;;;5105803;28;20032;-51
2024/02/26 06:01:41;;;;;;;6.63;2.10;;;9.70;92.00;;;;;;5123843;28;20020;-50
2024/02/26 06:04:07;;;;;;;8.55;2.10;;;9.60;92.00;;;;;;5105831;28;20035;-50
2024/02/26 06:06:32;;;;;;;15.60;2.53;;;9.70;92.30;;;;;;5105653;28;20034;-50
2024/02/26 06:08:58;;;;;;;9.65;2.35;;;9.60;92.00;;;;;;5105581;28;20083;-50
2024/02/26 06:11:23;;;;;;;21.58;2.88;;;9.70;92.10;;;;;;5105709;28;20515;-50
2024/02/26 06:13:49;;;;;;;7.97;2.42;;;9.70;92.10;;;;;;5105417;28;20031;-50
2024/02/26 06:16:14;;;;;;;20.77;3.28;;;9.70;92.10;;;;;;5123378;28;20432;-50
2024/02/26 06:18:40;;;;;;;19.45;3.22;;;9.70;92.10;;;;;;5105237;28;20114;-50
2024/02/26 06:21:09;;;;;;;12.73;2.58;;;9.70;92.30;;;;;;5105367;28;20031;-50
2024/02/26 06:23:35;;;;;;;19.85;3.47;;;9.70;92.30;;;;;;5088186;28;20038;-50
2024/02/26 06:26:00;;;;;;;17.15;3.65;;;9.70;92.20;;;;;;5088097;28;20051;-50
2024/02/26 06:28:27;;;;;;;16.40;3.38;;;9.70;92.30;;;;;;5123405;28;20382;-50
2024/02/26 06:30:53;;;;;;;19.58;3.40;;;9.70;92.30;;;;;;5105012;28;20028;-50
2024/02/26 06:33:18;;;;;;;15.35;2.83;;;9.70;92.50;;;;;;5105030;28;20028;-51
2024/02/26 06:35:44;;;;;;;18.85;3.10;;;9.70;92.60;;;;;;5123179;28;20028;-50
2024/02/26 06:38:12;;;;;;;21.05;3.20;;;9.70;92.60;;;;;;5104579;28;20036;-50
2024/02/26 06:40:38;;;;;;;31.42;5.03;;;9.70;92.60;;;;;;5105178;28;20081;-50
2024/02/26 06:43:03;;;;;;;23.20;3.78;;;9.70;92.70;;;;;;5123010;28;20486;-50
2024/02/26 06:45:29;;;;;;;26.30;4.78;;;9.70;93.00;;;;;;5104961;28;20020;-50
2024/02/26 06:47:56;;;;;;;27.48;3.75;;;9.70;93.10;;;;;;5123106;28;20053;-50
2024/02/26 06:50:22;;;;;;;63.80;6.60;;;9.70;93.10;;;;;;5079042;28;20020;-51
2024/02/26 06:52:47;;;;;;;40.88;5.78;;;9.70;93.00;;;;;;5091166;28;20058;-51
2024/02/26 06:55:13;;;;;;;25.42;4.78;;;9.70;93.00;;;;;;5109287;28;20024;-50
2024/02/26 06:57:39;;;;;;;39.00;4.68;;;9.70;93.00;;;;;;5090609;28;20028;-50
2024/02/26 07:00:05;;;;;;;17.77;3.80;;;9.80;93.10;;;;;;5094347;28;20024;-50
2024/02/26 07:02:31;;;;;;;37.55;4.63;;;9.70;93.10;;;;;;5090969;28;20024;-50
2024/02/26 07:04:58;;;;;;;25.40;5.32;;;9.70;93.10;;;;;;5080565;28;20024;-50
2024/02/26 07:07:24;;;;;;;77.60;10.95;;;9.70;93.20;;;;;;5108219;28;20031;-50
2024/02/26 07:09:49;;;;;;;51.00;7.72;;;9.70;93.10;;;;;;5073832;28;20027;-50
2024/02/26 07:12:15;;;;;;;43.53;7.43;;;9.70;93.10;;;;;;5071853;28;20025;-50
2024/02/26 07:14:41;;;;;;;34.88;6.85;;;9.70;93.10;;;;;;5080812;28;20099;-50
2024/02/26 07:17:07;;;;;;;46.00;6.82;;;9.80;93.20;;;;;;5129166;28;20035;-50
2024/02/26 07:19:35;;;;;;;29.73;5.90;;;9.80;93.20;;;;;;5087803;28;20042;-50
2024/02/26 07:22:01;;;;;;;37.08;6.80;;;9.80;93.20;;;;;;5090918;28;20024;-50
2024/02/26 07:24:27;;;;;;;42.03;5.88;;;9.70;93.10;;;;;;5090541;28;20024;-50
2024/02/26 07:27:21;;;;;;;32.28;5.65;;;9.80;93.20;;;;;;5100249;28;20027;-50
2024/02/26 07:29:48;;;;;;;27.23;6.32;;;9.80;93.20;;;;;;5084284;22;20045;-86
2024/02/26 07:33:03;;;;;;;25.92;5.22;;;9.80;93.20;;;;;;5050046;28;20017;-84
2024/02/26 07:35:29;;;;;;;35.85;5.68;;;9.80;93.20;;;;;;5066890;28;20055;-85
2024/02/26 07:37:54;;;;;;;33.53;5.97;;;9.80;93.20;;;;;;5065552;28;20372;-87
2024/02/26 07:40:20;;;;;;;27.52;4.78;;;9.80;93.20;;;;;;5048815;28;20024;-84
2024/02/26 07:42:46;;;;;;;31.58;5.63;;;9.80;93.20;;;;;;5030760;28;20041;-85
2024/02/26 07:45:11;;;;;;;28.08;5.25;;;9.80;93.20;;;;;;5028395;28;20452;-85
2024/02/26 07:47:40;;;;;;;30.75;5.75;;;9.80;93.20;;;;;;5032140;28;20059;-86
2024/02/26 07:50:07;;;;;;;24.92;5.30;;;9.80;93.10;;;;;;5065423;28;20116;-85
2024/02/26 07:52:33;;;;;;;28.08;5.40;;;9.80;93.10;;;;;;5066335;28;20117;-86
2024/02/26 07:54:59;;;;;;;32.13;5.38;;;9.80;93.10;;;;;;5065077;28;20119;-84
2024/02/26 07:57:24;;;;;;;35.90;6.28;;;9.90;93.10;;;;;;5065263;28;20051;-86
2024/02/26 07:59:50;;;;;;;44.47;6.13;;;9.90;93.10;;;;;;5032339;28;20063;-84
2024/02/26 08:02:16;;;;;;;31.00;5.57;;;9.90;93.10;;;;;;5030731;28;20418;-85
2024/02/26 08:04:42;;;;;;;28.00;5.43;;;9.90;93.10;;;;;;5047920;28;20033;-84
2024/02/26 08:07:07;;;;;;;55.85;6.45;;;9.90;93.10;;;;;;5065032;28;20054;-85
2024/02/26 08:09:33;;;;;;;40.67;7.32;;;9.90;93.00;;;;;;5064102;28;20056;-84
2024/02/26 08:11:59;;;;;;;37.30;6.15;;;10.00;93.10;;;;;;5048361;28;20028;-86
2024/02/26 08:14:24;;;;;;;83.28;8.90;;;10.00;93.10;;;;;;5048208;28;20060;-84
2024/02/26 08:16:50;;;;;;;94.97;10.20;;;9.90;93.10;;;;;;5065846;28;20459;-85
2024/02/26 08:19:17;;;;;;;56.42;8.05;;;9.90;93.10;;;;;;5031787;28;20341;-86
2024/02/26 08:21:46;;;;;;;42.00;6.82;;;10.00;93.10;;;;;;5065777;28;20111;-88
2024/02/26 08:24:12;;;;;;;27.73;6.35;;;10.00;93.10;;;;;;5064547;28;20101;-84
2024/02/26 08:26:37;;;;;;;58.58;8.52;;;10.00;93.10;;;;;;5031513;28;20133;-86
2024/02/26 08:29:03;;;;;;;47.17;7.07;;;10.00;93.10;;;;;;5047420;28;20040;-85
2024/02/26 08:31:30;;;;;;;47.30;6.00;;;10.00;93.20;;;;;;5031312;28;20108;-85
2024/02/26 08:34:11;;;;;;;67.45;9.07;;;10.00;93.10;;;;;;5065797;28;20029;-85
2024/02/26 08:36:36;;;;;;;50.25;7.40;;;10.10;93.10;;;;;;5223669;23;20051;-84
2024/02/26 08:41:30;;;;;;;60.60;9.05;;;10.00;93.00;;;;;;5041111;28;20049;-85
2024/02/26 08:44:09;;;;;;;53.80;7.47;;;10.10;93.10;;;;;;5009414;28;20029;-86
2024/02/26 08:55:55;;;;;;;47.92;6.85;;;10.10;93.00;;;;;;5063279;28;20059;-48
2024/02/26 08:58:24;;;;;;;53.75;7.18;;;10.10;92.90;;;;;;5066140;28;20380;-49
2024/02/26 09:00:50;;;;;;;54.85;8.43;;;10.10;92.90;;;;;;5028943;28;20029;-48
2024/02/26 09:03:15;;;;;;;25.38;6.15;;;10.20;93.00;;;;;;5123291;22;20446;-48
2024/02/26 09:05:41;;;;;;;50.40;6.50;;;10.20;93.00;;;;;;5067235;22;20040;-93
2024/02/26 09:08:07;;;;;;;40.72;6.13;;;10.20;92.90;;;;;;5032952;28;20035;-94
2024/02/26 09:10:33;;;;;;;48.35;5.93;;;10.20;92.90;;;;;;5047152;28;20078;-92
2024/02/26 09:13:00;;;;;;;31.48;5.13;;;10.30;92.80;;;;;;5079496;28;20025;-94
2024/02/26 09:15:25;;;;;;;34.92;5.45;;;10.30;92.80;;;;;;5070085;28;20067;-93
2024/02/26 09:17:52;;;;;;;42.97;6.40;;;10.30;92.80;;;;;;5052837;28;20041;-94
2024/02/26 09:20:21;;;;;;;57.95;6.63;;;10.30;92.70;;;;;;5089525;28;20021;-94
2024/02/26 09:22:47;;;;;;;50.75;7.18;;;10.30;92.80;;;;;;5089162;28;20040;-93
2024/02/26 09:25:33;;;;;;;41.33;5.82;;;10.40;92.80;;;;;;5057103;28;20032;-95
2024/02/26 09:27:59;;;;;;;;;;;10.40;92.70;;;;;;5092364;28;20027;-96
2024/02/26 09:36:21;;;;;;;77.53;8.93;;;10.50;92.90;;;;;;5285727;22;20033;-93
2024/02/26 09:38:47;;;;;;;86.60;10.77;;;10.50;92.80;;;;;;5007068;28;20076;-93
2024/02/26 09:41:14;;;;;;;70.43;8.35;;;10.60;92.80;;;;;;4991796;28;20021;-95
2024/02/26 09:43:49;;;;;;;47.45;8.73;;;10.60;92.90;;;;;;5012927;28;20034;-94
2024/02/26 09:46:15;;;;;;;67.15;9.82;;;10.70;92.70;;;;;;5003722;28;20045;-92
2024/02/26 09:48:42;;;;;;;77.80;8.48;;;10.60;92.70;;;;;;5013718;28;20112;-93
2024/02/26 09:51:07;;;;;;;62.63;8.45;;;10.60;92.70;;;;;;4999458;28;20060;-94
2024/02/26 09:53:33;;;;;;;84.20;9.20;;;10.90;92.90;;;;;;4997160;28;20033;-93
2024/02/26 09:55:59;;;;;;;60.03;9.93;;;10.70;92.90;;;;;;4998092;28;20044;-95
2024/02/26 09:58:26;;;;;;;73.28;9.70;;;10.80;92.80;;;;;;5014041;28;20038;-95
2024/02/26 10:00:56;;;;;;;70.45;9.05;;;10.70;92.80;;;;;;5013010;28;20026;-94
2024/02/26 10:03:22;;;;;;;85.90;10.35;;;10.80;92.80;;;;;;5014090;28;20022;-95
2024/02/26 10:05:50;;;;;;;67.50;9.88;;;10.80;92.70;;;;;;5006583;28;20021;-83
2024/02/26 10:08:18;;;;;;;80.88;10.50;;;10.80;92.70;;;;;;4991005;28;20026;-84
2024/02/26 10:13:47;;;;;;;68.00;9.15;;;10.90;92.90;;;;;;5041735;28;20614;-84
2024/02/26 10:16:12;;;;;;;74.60;9.32;;;10.90;92.60;;;;;;5011095;28;20033;-88
2024/02/26 10:18:51;;;;;;;92.25;9.90;;;11.00;92.60;;;;;;4995069;28;20029;-88
2024/02/26 10:21:17;;;;;;;76.10;9.30;;;11.00;92.60;;;;;;5013498;28;20095;-85
2024/02/26 10:23:44;;;;;;;76.22;10.40;;;11.00;92.60;;;;;;4979831;28;20021;-84
2024/02/26 10:26:11;;;;;;;99.28;11.52;;;11.10;92.50;;;;;;5015778;28;20037;-86
2024/02/26 10:28:37;;;;;;;74.05;10.10;;;11.10;92.50;;;;;;5016012;28;20101;-84
2024/02/26 10:31:03;;;;;;;115.72;12.00;;;11.10;92.60;;;;;;5030973;28;20075;-86
2024/02/26 10:33:28;;;;;;;101.85;11.65;;;11.20;92.50;;;;;;5032315;28;20026;-85
2024/02/26 10:35:54;;;;;;;91.90;11.20;;;11.20;92.60;;;;;;5049755;28;20455;-85
2024/02/26 10:38:22;;;;;;;105.38;10.98;;;11.30;92.50;;;;;;5032009;28;20044;-83
2024/02/26 10:40:49;;;;;;;101.70;11.80;;;11.30;92.50;;;;;;5015259;28;20029;-88
2024/02/26 10:43:18;;;;;;;79.25;9.80;;;11.20;92.50;;;;;;5004621;28;20488;-84
2024/02/26 10:45:44;;;;;;;102.03;11.45;;;11.30;92.40;;;;;;5029728;28;20032;-87
2024/02/26 10:48:11;;;;;;;114.40;14.48;;;11.30;92.60;;;;;;5015717;28;20116;-85
2024/02/26 10:50:37;;;;;;;117.82;13.02;;;11.30;92.70;;;;;;4999643;28;20060;-87
2024/02/26 10:53:02;;;;;;;111.80;12.98;;;11.40;92.70;;;;;;5014231;28;20038;-86
2024/02/26 10:55:28;;;;;;;82.97;10.90;;;11.40;92.80;;;;;;4998656;28;20034;-86
2024/02/26 10:57:54;;;;;;;73.40;10.13;;;11.40;92.80;;;;;;5023569;28;20036;-84
2024/02/26 11:00:19;;;;;;;90.10;10.93;;;11.50;92.80;;;;;;5015576;28;20140;-88
2024/02/26 11:02:46;;;;;;;103.43;13.48;;;11.50;92.80;;;;;;5015777;28;20061;-87
2024/02/26 11:05:12;;;;;;;98.30;11.45;;;11.30;92.90;;;;;;5001618;28;20097;-85
2024/02/26 11:07:38;;;;;;;93.90;11.25;;;11.60;93.00;;;;;;4998059;28;20025;-86
2024/02/26 11:10:05;;;;;;;64.10;9.13;;;11.70;92.90;;;;;;4998915;28;20018;-88
2024/02/26 11:12:32;;;;;;;91.50;10.23;;;11.70;92.60;;;;;;4997943;28;20026;-84
2024/02/26 11:14:58;;;;;;;100.13;11.88;;;11.60;92.40;;;;;;4997755;28;20064;-84
2024/02/26 11:17:31;;;;;;;64.90;10.82;;;11.60;92.50;;;;;;5030819;28;20041;-86
2024/02/26 11:19:57;;;;;;;107.53;11.55;;;11.70;92.50;;;;;;4999133;28;20057;-83
2024/02/26 11:22:27;;;;;;;122.95;12.30;;;11.70;92.50;;;;;;5011886;28;20033;-84
2024/02/26 11:24:54;;;;;;;96.85;11.32;;;11.70;92.70;;;;;;4997644;28;20041;-84
2024/02/26 11:27:20;;;;;;;114.75;13.57;;;11.70;92.80;;;;;;5014509;28;20029;-83
2024/02/26 11:29:48;;;;;;;102.90;12.20;;;11.70;92.80;;;;;;4997855;28;20052;-84
2024/02/26 11:32:14;;;;;;;95.93;12.05;;;11.80;92.70;;;;;;5000719;28;20132;-84
2024/02/26 11:34:39;;;;;;;72.63;10.75;;;11.80;92.80;;;;;;5020480;28;20025;-85
2024/02/26 11:37:10;;;;;;;100.60;11.35;;;11.80;92.70;;;;;;5018391;28;20069;-84
2024/02/26 11:39:36;;;;;;;94.88;12.82;;;11.80;92.70;;;;;;5011348;28;20042;-83
2024/02/26 11:42:08;;;;;;;88.60;13.07;;;11.90;92.70;;;;;;5011561;28;20094;-83
2024/02/26 11:44:35;;;;;;;136.18;16.23;;;11.90;92.80;;;;;;5017010;28;20038;-86
2024/02/26 11:47:12;;;;;;;99.40;12.70;;;11.90;92.90;;;;;;5022873;28;20025;-85
2024/02/26 11:49:38;;;;;;;96.85;11.73;;;11.90;92.90;;;;;;5009058;28;20093;-84
2024/02/26 11:52:07;;;;;;;85.03;10.27;;;12.00;93.10;;;;;;5028114;28;20037;-82
2024/02/26 11:54:42;;;;;;;103.80;12.93;;;12.00;93.10;;;;;;5014029;28;20029;-84
2024/02/26 11:57:32;;;;;;;78.88;11.52;;;12.20;93.10;;;;;;5011237;28;20547;-85
2024/02/26 12:00:07;;;;;;;79.18;10.85;;;12.10;92.90;;;;;;4995788;28;20076;-83
2024/02/26 12:03:00;;;;;;;88.63;10.63;;;12.10;92.60;;;;;;5026088;28;20112;-84
2024/02/26 12:05:28;;;;;;;67.85;8.98;;;12.10;92.50;;;;;;5020106;28;20034;-85
2024/02/26 12:07:55;;;;;;;62.22;8.38;;;12.20;92.30;;;;;;5011249;28;20034;-83
2024/02/26 12:10:22;;;;;;;60.05;8.38;;;12.20;92.50;;;;;;5021821;28;20034;-86
2024/02/26 12:12:49;;;;;;;58.42;8.20;;;12.20;92.20;;;;;;5047694;28;20037;-84
2024/02/26 12:15:15;;;;;;;59.67;8.95;;;12.20;92.10;;;;;;4995451;28;20030;-86
2024/02/26 12:17:40;;;;;;;63.33;8.05;;;12.20;92.10;;;;;;5006886;28;20038;-83
2024/02/26 12:20:10;;;;;;;52.63;8.32;;;12.30;92.00;;;;;;5021580;28;20071;-84
2024/02/26 12:22:39;;;;;;;55.67;8.80;;;12.30;91.90;;;;;;5044707;28;20081;-88
2024/02/26 12:25:05;;;;;;;55.63;8.93;;;12.30;91.80;;;;;;4998334;28;20030;-85
2024/02/26 12:27:31;;;;;;;55.83;8.55;;;12.40;91.90;;;;;;5013494;28;20021;-86
2024/02/26 12:29:57;;;;;;;46.15;7.25;;;12.40;92.20;;;;;;5046437;28;20078;-84
2024/02/26 12:32:22;;;;;;;47.45;7.18;;;12.40;91.80;;;;;;5038555;28;20027;-83
2024/02/26 12:34:49;;;;;;;57.83;8.80;;;12.40;91.70;;;;;;5013672;28;20021;-86
2024/02/26 12:37:15;;;;;;;42.05;6.03;;;12.50;91.70;;;;;;5016012;28;20032;-85
2024/02/26 12:39:41;;;;;;;36.45;6.22;;;12.50;91.40;;;;;;4997115;28;20048;-84
2024/02/26 12:42:07;;;;;;;39.60;6.38;;;12.50;91.40;;;;;;4997201;28;20053;-84
2024/02/26 12:44:32;;;;;;;33.50;6.55;;;12.60;91.40;;;;;;4993950;28;20111;-84
2024/02/26 12:47:05;;;;;;;47.83;6.80;;;12.60;91.30;;;;;;5010893;28;20036;-84
2024/02/26 12:49:31;;;;;;;35.25;6.28;;;12.60;91.10;;;;;;5030047;28;20025;-84
2024/02/26 12:52:01;;;;;;;43.55;6.15;;;12.60;90.90;;;;;;5013029;28;20089;-85
2024/02/26 12:54:38;;;;;;;33.58;6.13;;;12.60;90.90;;;;;;5020501;28;20064;-84
2024/02/26 12:57:06;;;;;;;38.05;5.60;;;12.60;90.90;;;;;;5021667;28;20041;-83
2024/02/26 12:59:32;;;;;;;28.17;5.03;;;12.70;90.90;;;;;;5019396;28;20030;-82
2024/02/26 13:01:57;;;;;;;37.30;6.10;;;12.70;90.90;;;;;;5029372;28;20033;-83
2024/02/26 13:04:24;;;;;;;21.33;4.82;;;12.70;90.70;;;;;;4996701;28;20010;-83